Time;durP1;ratioP1;P1;durP2;ratioP2;P2;SDS_P1;SDS_P2;PMS_P1;PMS_P2;Temp;Humidity;BMP_temperature;BMP_pressure;BME280_temperature;BME280_humidity;BME280_pressure;Samples;Min_cycle;Max_cycle;Signal;HPM_P1;HPM_P2
2022/06/03 00:01:32;;;;;;;2.90;1.02;;;;;;;15.99;100.00;100090.88;7396143;19;20014;-90
2022/06/03 00:04:25;;;;;;;0.98;0.50;;;;;;;15.97;100.00;100085.00;7396986;19;20019;-89
2022/06/03 00:06:57;;;;;;;0.57;0.45;;;;;;;16.00;100.00;100084.00;7393869;19;20014;-90
2022/06/03 00:09:44;;;;;;;0.90;0.77;;;;;;;15.96;100.00;100089.06;7394622;19;20015;-89
2022/06/03 00:12:35;;;;;;;1.85;0.75;;;;;;;15.98;100.00;100091.38;7397582;19;20010;-89
2022/06/03 00:15:09;;;;;;;3.50;0.88;;;;;;;16.01;100.00;100084.72;7396013;19;20037;-90
2022/06/03 00:18:03;;;;;;;3.95;1.40;;;;;;;16.06;100.00;100090.38;7396420;19;20018;-92
2022/06/03 00:20:57;;;;;;;1.48;0.70;;;;;;;16.06;100.00;100086.78;7396245;19;20018;-90
2022/06/03 00:23:38;;;;;;;0.60;0.60;;;;;;;16.01;100.00;100093.94;7396850;19;20545;-90
2022/06/03 00:26:25;;;;;;;1.25;0.30;;;;;;;15.91;100.00;100093.41;7396427;19;20014;-90
2022/06/03 00:29:21;;;;;;;1.60;0.95;;;;;;;15.91;100.00;100089.84;7409891;19;20031;-90
2022/06/03 00:32:24;;;;;;;2.83;0.98;;;;;;;15.82;100.00;100088.03;7417415;19;20039;-90
2022/06/03 00:35:26;;;;;;;0.60;0.40;;;;;;;15.85;100.00;100084.19;7403513;19;20444;-89
2022/06/03 00:38:34;;;;;;;0.82;0.73;;;;;;;15.85;100.00;100092.63;7401900;19;20029;-89
2022/06/03 00:41:19;;;;;;;1.38;0.43;;;;;;;15.78;100.00;100083.91;7403020;19;20031;-89
2022/06/03 00:44:09;;;;;;;1.27;0.60;;;;;;;15.80;100.00;100081.38;7403996;19;20032;-89
2022/06/03 00:47:03;;;;;;;3.30;0.90;;;;;;;15.76;100.00;100081.63;7400661;19;20019;-90
2022/06/03 00:50:17;;;;;;;0.93;0.70;;;;;;;15.80;100.00;100087.00;7401698;19;20010;-89
2022/06/03 00:53:14;;;;;;;1.73;0.80;;;;;;;15.80;100.00;100084.97;7398574;19;20015;-90
2022/06/03 00:55:49;;;;;;;0.60;0.40;;;;;;;15.82;100.00;100090.06;7400252;19;20747;-90
2022/06/03 00:58:32;;;;;;;1.83;0.73;;;;;;;15.87;100.00;100086.50;7401367;19;20022;-89
2022/06/03 01:01:15;;;;;;;3.05;1.40;;;;;;;15.88;100.00;100085.22;7400235;19;20031;-89
2022/06/03 01:04:16;;;;;;;2.08;0.52;;;;;;;15.92;100.00;100089.31;7400944;19;20014;-89
2022/06/03 01:07:04;;;;;;;2.15;0.82;;;;;;;15.87;100.00;100092.13;7397349;19;20837;-89
2022/06/03 01:09:51;;;;;;;2.08;0.50;;;;;;;15.80;100.00;100082.16;7401284;19;20031;-90
2022/06/03 01:12:26;;;;;;;1.90;0.70;;;;;;;15.76;100.00;100080.84;7402520;19;20046;-87
2022/06/03 01:15:36;;;;;;;2.45;0.57;;;;;;;15.76;100.00;100081.63;7400235;19;20017;-86
2022/06/03 01:18:34;;;;;;;2.65;1.27;;;;;;;15.72;100.00;100083.13;7400825;19;20046;-81
2022/06/03 01:21:12;;;;;;;0.52;0.52;;;;;;;15.71;100.00;100090.00;7392870;19;20101;-82
2022/06/03 01:23:47;;;;;;;1.15;0.90;;;;;;;15.72;100.00;100080.34;7392544;19;20018;-81
2022/06/03 01:26:38;;;;;;;0.73;0.40;;;;;;;15.70;100.00;100085.69;7390311;19;20018;-82
2022/06/03 01:29:32;;;;;;;1.25;1.00;;;;;;;15.74;100.00;100083.41;7392403;19;20683;-81
2022/06/03 01:32:17;;;;;;;0.65;0.32;;;;;;;15.73;100.00;100085.44;7391109;19;20034;-82
2022/06/03 01:34:43;;;;;;;2.47;0.65;;;;;;;15.76;100.00;100080.84;7393690;19;20018;-82
2022/06/03 01:37:15;;;;;;;1.05;0.90;;;;;;;15.75;100.00;100084.91;7389821;19;20574;-82
2022/06/03 01:39:47;;;;;;;1.67;0.47;;;;;;;15.65;100.00;100087.19;7389400;19;20021;-81
2022/06/03 01:42:36;;;;;;;0.75;0.40;;;;;;;15.58;100.00;100082.06;7394150;19;20015;-81
2022/06/03 01:45:23;;;;;;;0.55;0.50;;;;;;;15.57;100.00;100076.97;7390244;19;20018;-81
2022/06/03 01:48:01;;;;;;;1.85;0.55;;;;;;;15.56;100.00;100081.03;7388801;19;20021;-81
2022/06/03 01:50:36;;;;;;;1.85;0.57;;;;;;;15.61;100.00;100089.50;7389518;19;20097;-82
2022/06/03 01:53:21;;;;;;;1.90;0.60;;;;;;;15.56;100.00;100083.84;7389449;19;20025;-81
2022/06/03 01:55:50;;;;;;;1.05;0.68;;;;;;;15.59;100.00;100082.84;7388770;19;20038;-82
2022/06/03 01:58:50;;;;;;;1.20;1.02;;;;;;;15.56;100.00;100083.84;7389009;19;20007;-82
2022/06/03 02:01:40;;;;;;;1.08;0.70;;;;;;;15.49;100.00;100081.50;7389327;19;20015;-81
2022/06/03 02:04:30;;;;;;;2.45;0.63;;;;;;;15.41;100.00;100083.22;7393207;19;20403;-82
2022/06/03 02:07:12;;;;;;;1.38;0.50;;;;;;;15.37;100.00;100083.47;7387284;19;20026;-82
2022/06/03 02:10:05;;;;;;;2.35;0.85;;;;;;;15.34;100.00;100083.69;7388403;19;20014;-82
2022/06/03 02:12:59;;;;;;;1.63;1.08;;;;;;;15.30;100.00;100078.34;7391664;19;20510;-82
2022/06/03 02:15:31;;;;;;;1.40;0.50;;;;;;;15.26;100.00;100077.03;7389466;19;20492;-82
2022/06/03 02:18:13;;;;;;;1.38;0.63;;;;;;;15.36;100.00;100081.16;7388899;19;20078;-82
2022/06/03 02:21:07;;;;;;;0.57;0.52;;;;;;;15.01;100.00;100079.44;7388162;19;20382;-82
2022/06/03 02:23:39;;;;;;;0.45;0.40;;;;;;;13.84;100.00;100073.31;7390302;19;20696;-81
2022/06/03 02:26:47;;;;;;;2.28;0.85;;;;;;;14.18;100.00;100072.41;7388102;19;20014;-82
2022/06/03 02:32:59;;;;;;;1.13;0.60;;;;;;;13.79;100.00;100071.22;7389189;19;20086;-81
2022/06/03 02:35:49;;;;;;;1.45;0.77;;;;;;;14.40;100.00;100069.81;7388352;19;20673;-82
2022/06/03 02:38:46;;;;;;;2.10;0.50;;;;;;;15.27;100.00;100079.31;7389323;19;20021;-82
2022/06/03 02:41:21;;;;;;;1.08;0.73;;;;;;;15.18;100.00;100079.56;7387910;19;20014;-82
2022/06/03 02:44:15;;;;;;;1.45;1.00;;;;;;;15.18;100.00;100076.75;7389829;19;20046;-82
2022/06/03 02:47:13;;;;;;;0.98;0.70;;;;;;;15.14;100.00;100084.59;7388979;19;20011;-82
2022/06/03 02:49:57;;;;;;;0.45;0.40;;;;;;;15.11;100.00;100082.81;7386486;19;20046;-82
2022/06/03 02:52:32;;;;;;;2.22;0.90;;;;;;;15.06;100.00;100083.56;7387330;19;20021;-82
2022/06/03 02:55:11;;;;;;;0.73;0.47;;;;;;;15.03;100.00;100082.50;7386687;19;20014;-81
2022/06/03 02:57:47;;;;;;;2.50;0.65;;;;;;;15.03;100.00;100074.09;7389796;19;20103;-82
2022/06/03 03:00:22;;;;;;;1.48;0.65;;;;;;;15.04;100.00;100084.06;7389395;19;20112;-82
2022/06/03 03:03:25;;;;;;;0.80;0.65;;;;;;;15.08;100.00;100078.97;7387179;19;20353;-82
2022/06/03 03:06:16;;;;;;;1.40;1.10;;;;;;;15.05;100.00;100073.63;7388616;19;20109;-81
2022/06/03 03:09:24;;;;;;;0.32;0.20;;;;;;;14.99;100.00;100081.97;7386394;19;20015;-82
2022/06/03 03:12:24;;;;;;;3.20;1.10;;;;;;;14.87;100.00;100079.59;7388063;19;20380;-82
2022/06/03 03:14:59;;;;;;;0.38;0.38;;;;;;;14.87;100.00;100076.81;7390421;19;20022;-81
2022/06/03 03:17:54;;;;;;;4.80;1.08;;;;;;;14.78;100.00;100077.00;7385823;19;20111;-81
2022/06/03 03:20:20;;;;;;;1.05;0.50;;;;;;;14.77;100.00;100086.69;7397386;19;20015;-81
2022/06/03 03:23:11;;;;;;;0.43;0.43;;;;;;;14.84;100.00;100086.19;7408769;19;20099;-82
2022/06/03 03:25:52;;;;;;;0.47;0.40;;;;;;;14.87;100.00;100086.00;7393402;19;20018;-82
2022/06/03 03:28:46;;;;;;;1.20;0.82;;;;;;;14.88;100.00;100076.28;7390839;19;20018;-81
2022/06/03 03:31:50;;;;;;;0.82;0.73;;;;;;;14.86;100.00;100076.03;7386894;19;20014;-82
2022/06/03 03:34:45;;;;;;;0.88;0.63;;;;;;;14.87;100.00;100074.78;7390208;19;20019;-82
2022/06/03 03:37:11;;;;;;;1.60;0.70;;;;;;;14.88;100.00;100073.50;7385608;19;20082;-82
2022/06/03 03:39:47;;;;;;;0.88;0.80;;;;;;;14.86;100.00;100072.44;7386353;19;20018;-81
2022/06/03 03:42:35;;;;;;;1.10;0.77;;;;;;;14.84;100.00;100064.53;7390385;19;20022;-81
2022/06/03 03:45:33;;;;;;;1.67;0.73;;;;;;;14.75;100.00;100061.19;7385378;19;20484;-81
2022/06/03 03:48:27;;;;;;;4.15;0.63;;;;;;;14.73;100.00;100056.06;7381970;19;20031;-81
2022/06/03 03:51:19;;;;;;;0.65;0.47;;;;;;;14.67;100.00;100062.88;7383715;19;20022;-81
2022/06/03 03:54:15;;;;;;;1.73;0.85;;;;;;;14.66;100.00;100070.53;7388653;19;20374;-81
2022/06/03 03:56:53;;;;;;;0.50;0.50;;;;;;;14.54;100.00;100068.13;7387058;19;20038;-81
2022/06/03 03:59:22;;;;;;;1.50;0.82;;;;;;;14.53;100.00;100078.56;7386767;19;20018;-81
2022/06/03 04:02:41;;;;;;;1.48;0.57;;;;;;;14.48;100.00;100079.31;7385575;19;20018;-81
2022/06/03 04:05:16;;;;;;;1.55;0.47;;;;;;;14.38;100.00;100072.34;7382656;19;20528;-81
2022/06/03 04:07:54;;;;;;;1.63;0.75;;;;;;;14.30;100.00;100071.25;7385602;19;20353;-82
2022/06/03 04:10:57;;;;;;;0.95;0.80;;;;;;;14.33;100.00;100075.88;7386330;19;20010;-81
2022/06/03 04:13:42;;;;;;;0.40;0.40;;;;;;;14.29;100.00;100072.53;7389326;19;20042;-81
2022/06/03 04:16:21;;;;;;;2.33;1.10;;;;;;;14.27;100.00;100075.03;7385959;19;20816;-80
2022/06/03 04:19:19;;;;;;;1.38;0.88;;;;;;;14.26;100.00;100074.25;7386302;19;20368;-81
2022/06/03 04:22:04;;;;;;;0.57;0.57;;;;;;;14.17;100.00;100082.03;7383347;19;20052;-80
2022/06/03 04:24:54;;;;;;;0.55;0.50;;;;;;;14.09;100.00;100078.94;7387273;19;20058;-81
2022/06/03 04:27:27;;;;;;;0.57;0.57;;;;;;;14.17;100.00;100068.03;7386549;19;20041;-83
2022/06/03 04:30:31;;;;;;;1.38;0.70;;;;;;;14.18;100.00;100075.19;7386373;19;20029;-81
2022/06/03 04:33:06;;;;;;;1.35;0.50;;;;;;;14.19;100.00;100082.31;7386733;19;20022;-81
2022/06/03 04:36:03;;;;;;;0.73;0.70;;;;;;;14.22;100.00;100070.13;7384392;19;20367;-81
2022/06/03 04:38:56;;;;;;;1.17;1.00;;;;;;;14.24;100.00;100062.78;7385923;19;20029;-81
2022/06/03 04:41:53;;;;;;;0.98;0.88;;;;;;;14.25;100.00;100069.16;7383623;19;20019;-82
2022/06/03 04:45:02;;;;;;;1.75;0.50;;;;;;;14.26;100.00;100065.84;7388021;19;20410;-83
2022/06/03 04:47:43;;;;;;;2.60;1.17;;;;;;;14.25;100.00;100060.75;7383649;19;20018;-83
2022/06/03 04:50:15;;;;;;;;;;;;;;;14.34;100.00;100071.78;7387119;19;20017;-82
2022/06/03 04:53:14;;;;;;;2.28;0.50;;;;;;;14.34;100.00;100066.19;7386138;19;19978;-82
2022/06/03 04:56:19;;;;;;;0.90;0.90;;;;;;;14.32;100.00;100069.50;7384036;19;20015;-82
2022/06/03 04:59:19;;;;;;;0.82;0.80;;;;;;;14.29;100.00;100076.06;7385662;19;20022;-82
2022/06/03 05:01:51;;;;;;;0.40;0.40;;;;;;;14.32;100.00;100074.31;7384947;19;20034;-83
2022/06/03 05:04:36;;;;;;;1.85;0.88;;;;;;;14.29;100.00;100070.47;7386398;19;20086;-83
2022/06/03 05:07:08;;;;;;;2.35;1.00;;;;;;;14.33;100.00;100081.47;7383691;19;20018;-83
2022/06/03 05:09:59;;;;;;;1.33;0.95;;;;;;;14.35;100.00;100079.72;7385718;19;20464;-83
2022/06/03 05:12:43;;;;;;;2.70;1.02;;;;;;;14.37;100.00;100076.41;7389106;19;20029;-83
2022/06/03 05:15:21;;;;;;;1.63;0.93;;;;;;;14.46;100.00;100081.06;7392640;19;20014;-83
2022/06/03 05:18:40;;;;;;;1.67;0.85;;;;;;;14.48;100.00;100076.50;7392046;19;20014;-83
2022/06/03 05:21:12;;;;;;;1.92;1.08;;;;;;;14.52;100.00;100087.47;7393828;19;20611;-83
2022/06/03 05:24:16;;;;;;;1.02;0.77;;;;;;;14.56;100.00;100083.19;7393509;19;20018;-83
2022/06/03 05:27:10;;;;;;;2.42;1.10;;;;;;;14.57;100.00;100079.13;7390980;19;20011;-79
2022/06/03 05:29:45;;;;;;;1.85;0.50;;;;;;;14.54;100.00;100084.94;7392119;19;20027;-80
2022/06/03 05:32:27;;;;;;;0.57;0.47;;;;;;;14.54;100.00;100084.94;7390717;19;20010;-80
2022/06/03 05:35:05;;;;;;;0.88;0.85;;;;;;;14.57;100.00;100090.34;7394353;19;20022;-80
2022/06/03 05:37:46;;;;;;;0.50;0.47;;;;;;;14.55;100.00;100090.09;7391152;19;20010;-80
2022/06/03 05:40:31;;;;;;;1.95;1.30;;;;;;;14.68;100.00;100090.44;7389602;19;20995;-81
2022/06/03 05:43:19;;;;;;;2.00;1.08;;;;;;;14.70;100.00;100092.75;7391453;19;20026;-80
2022/06/03 05:46:13;;;;;;;0.43;0.40;;;;;;;14.80;100.00;100097.66;7390602;19;20381;-80
2022/06/03 05:49:08;;;;;;;2.08;0.98;;;;;;;14.89;100.00;100091.88;7389691;19;20019;-81
2022/06/03 05:51:58;;;;;;;8.13;0.82;;;;;;;15.02;100.00;100097.81;7391497;19;20029;-81
2022/06/03 05:55:15;;;;;;;3.40;1.33;;;;;;;15.06;100.00;100092.75;7391610;19;20614;-80
2022/06/03 05:58:02;;;;;;;3.85;0.90;;;;;;;15.07;100.00;100090.72;7387094;19;20015;-80
2022/06/03 06:00:56;;;;;;;1.38;0.60;;;;;;;15.17;100.00;100092.03;7390849;19;20018;-79
2022/06/03 06:03:41;;;;;;;1.42;0.65;;;;;;;15.23;100.00;100089.25;7391485;19;20026;-81
2022/06/03 06:06:28;;;;;;;0.57;0.57;;;;;;;15.26;100.00;100093.88;7388272;19;20019;-80
2022/06/03 06:09:15;;;;;;;1.90;0.70;;;;;;;15.26;100.00;100096.66;7395154;19;20421;-81
2022/06/03 06:11:58;;;;;;;0.80;0.30;;;;;;;15.38;100.00;100092.63;7399632;19;20040;-80
2022/06/03 06:14:33;;;;;;;1.98;1.13;;;;;;;15.45;100.00;100100.63;7421645;19;20023;-80
2022/06/03 06:17:37;;;;;;;1.33;0.60;;;;;;;15.52;100.00;100100.16;7421736;19;20022;-80
2022/06/03 06:20:36;;;;;;;1.52;0.50;;;;;;;15.48;100.00;100100.41;7413221;19;20014;-80
2022/06/03 06:23:16;;;;;;;1.10;0.90;;;;;;;15.54;100.00;100108.84;7400095;19;20014;-80
2022/06/03 06:26:11;;;;;;;2.55;1.00;;;;;;;15.53;100.00;100104.47;7394433;19;20014;-80
2022/06/03 06:29:01;;;;;;;4.22;1.55;;;;;;;15.72;100.00;100116.84;7392766;19;20801;-80
2022/06/03 06:32:04;;;;;;;1.40;0.52;;;;;;;15.94;100.00;100108.47;7387750;19;20026;-80
2022/06/03 06:34:39;;;;;;;1.77;0.98;;;;;;;16.06;100.00;100112.09;7391146;19;20015;-81
2022/06/03 06:37:20;;;;;;;3.00;1.30;;;;;;;16.20;100.00;100103.41;7389092;19;20025;-79
2022/06/03 06:40:16;;;;;;;2.83;1.02;;;;;;;16.29;100.00;100117.25;7389893;19;20018;-81
2022/06/03 06:42:56;;;;;;;1.95;0.80;;;;;;;16.37;100.00;100123.88;7392125;19;20018;-79
2022/06/03 06:45:31;;;;;;;2.40;1.20;;;;;;;16.54;100.00;100121.91;7389487;19;20016;-80
2022/06/03 06:48:11;;;;;;;1.58;1.15;;;;;;;16.80;100.00;100118.06;7386846;19;20025;-81
2022/06/03 06:50:40;;;;;;;4.15;1.58;;;;;;;16.81;100.00;100122.41;7388183;19;20056;-80
2022/06/03 06:53:14;;;;;;;3.63;1.70;;;;;;;17.13;100.00;100120.88;7389409;19;20022;-79
2022/06/03 06:56:30;;;;;;;2.42;1.52;;;;;;;17.34;100.00;100131.31;7388866;19;20045;-79
2022/06/03 06:59:03;;;;;;;3.92;2.20;;;;;;;17.62;100.00;100120.00;7385351;19;20042;-79
2022/06/03 07:01:38;;;;;;;1.02;0.98;;;;;;;17.89;100.00;100121.91;7388939;19;20022;-79
2022/06/03 07:04:13;;;;;;;4.50;1.33;;;;;;;17.95;100.00;100125.47;7391146;19;20038;-79
2022/06/03 07:07:05;;;;;;;5.72;2.03;;;;;;;18.11;100.00;100121.78;7387153;19;20015;-79
2022/06/03 07:09:34;;;;;;;4.80;1.70;;;;;;;18.27;100.00;100133.50;7388008;19;20022;-79
2022/06/03 07:12:12;;;;;;;2.63;1.60;;;;;;;18.34;100.00;100130.91;7388045;19;20491;-79
2022/06/03 07:14:54;;;;;;;3.45;1.67;;;;;;;18.40;100.00;100130.84;7388737;19;20022;-79
2022/06/03 07:20:46;;;;;;;6.10;1.25;;;;;;;18.42;100.00;100125.44;7387643;19;20025;-79
2022/06/03 07:23:42;;;;;;;1.80;0.82;;;;;;;18.53;100.00;100128.22;7387626;19;20746;-79
2022/06/03 07:26:30;;;;;;;5.72;1.60;;;;;;;18.64;100.00;100133.78;7385838;19;20014;-79
2022/06/03 07:29:14;;;;;;;2.97;1.38;;;;;;;18.68;100.00;100137.09;7389581;19;20045;-79
2022/06/03 07:31:59;;;;;;;7.05;1.70;;;;;;;18.86;100.00;100125.88;7387129;19;20024;-79
2022/06/03 07:35:05;;;;;;;3.83;1.30;;;;;;;18.92;100.00;100128.69;7389908;19;20035;-80
2022/06/03 07:37:42;;;;;;;5.68;1.35;;;;;;;18.97;100.00;100130.69;7385821;19;20416;-79
2022/06/03 07:40:40;;;;;;;3.10;0.75;;;;;;;19.12;100.00;100131.06;7386760;19;20499;-79
2022/06/03 07:43:14;;;;;;;4.10;1.13;;;;;;;19.12;100.00;100133.88;7388427;19;20029;-79
2022/06/03 07:45:52;;;;;;;1.92;1.13;;;;;;;19.11;100.00;100135.16;7383910;19;20010;-79
2022/06/03 07:48:24;;;;;;;1.92;1.00;;;;;;;19.27;100.00;100136.31;7383514;19;20010;-79
2022/06/03 07:51:11;;;;;;;2.47;1.15;;;;;;;19.37;100.00;100132.63;7386256;19;20023;-79
2022/06/03 07:53:50;;;;;;;1.63;1.27;;;;;;;19.61;100.00;100131.84;7388537;19;20032;-79
2022/06/03 07:56:27;;;;;;;3.50;0.93;;;;;;;19.56;100.00;100133.44;7386732;19;20018;-79
2022/06/03 07:58:58;;;;;;;2.38;1.42;;;;;;;19.63;100.00;100135.66;7386530;19;20029;-79
2022/06/03 08:01:26;;;;;;;3.63;1.30;;;;;;;19.66;100.00;100140.25;7383954;19;20022;-79
2022/06/03 08:03:53;;;;;;;4.10;1.10;;;;;;;19.72;100.00;100133.78;7388343;19;20030;-79
2022/06/03 08:12:26;;;;;;;4.35;1.15;;;;;;;20.13;100.00;100142.75;7388748;19;20014;-79
2022/06/03 08:14:52;;;;;;;3.80;0.90;;;;;;;20.11;100.00;100140.47;7386664;19;20014;-79
2022/06/03 08:17:19;;;;;;;2.92;1.08;;;;;;;20.20;100.00;100142.16;7385405;19;20026;-79
2022/06/03 08:19:46;;;;;;;2.53;0.80;;;;;;;20.16;100.00;100144.53;7386867;19;20023;-79
2022/06/03 08:22:16;;;;;;;5.43;1.10;;;;;;;20.03;100.00;100138.78;7386506;19;20078;-79
2022/06/03 08:24:55;;;;;;;0.73;0.50;;;;;;;19.65;100.00;100138.72;7386572;19;20037;-80
2022/06/03 08:27:33;;;;;;;2.72;1.25;;;;;;;18.72;100.00;100134.75;7384416;19;20625;-81
2022/06/03 08:30:03;;;;;;;4.45;1.40;;;;;;;18.60;100.00;100138.94;7384458;19;20371;-81
2022/06/03 08:32:35;;;;;;;2.95;1.33;;;;;;;18.59;100.00;100145.88;7387804;19;20545;-81
2022/06/03 08:35:07;;;;;;;2.28;1.05;;;;;;;18.67;100.00;100149.66;7385430;19;20357;-80
2022/06/03 08:37:41;;;;;;;1.92;0.93;;;;;;;18.78;100.00;100146.75;7382355;19;20010;-81
2022/06/03 08:40:32;;;;;;;2.58;1.10;;;;;;;18.95;100.00;100149.44;7387625;19;20022;-81
2022/06/03 08:43:27;;;;;;;4.53;0.90;;;;;;;20.85;100.00;100145.28;7385592;19;20041;-82
2022/06/03 08:46:12;;;;;;;2.00;1.13;;;;;;;21.18;100.00;100154.56;7387214;19;20468;-81
2022/06/03 08:48:42;;;;;;;1.27;0.68;;;;;;;21.58;100.00;100147.59;7386795;19;20015;-81
2022/06/03 08:51:18;;;;;;;2.13;0.80;;;;;;;21.44;100.00;100140.41;7392133;19;20082;-81
2022/06/03 08:54:16;;;;;;;3.28;0.55;;;;;;;21.48;100.00;100138.03;7391933;19;20022;-81
2022/06/03 08:56:45;;;;;;;3.25;0.73;;;;;;;21.70;100.00;100137.59;7393921;19;20078;-81
2022/06/03 08:59:15;;;;;;;2.45;0.90;;;;;;;21.90;100.00;100145.44;7390962;19;20022;-82
2022/06/03 09:01:48;;;;;;;2.65;0.85;;;;;;;22.05;100.00;100137.13;7391369;19;20503;-81
2022/06/03 09:04:20;;;;;;;2.50;0.70;;;;;;;22.12;100.00;100135.69;7393249;19;21006;-81
2022/06/03 09:07:17;;;;;;;2.90;1.00;;;;;;;22.04;100.00;100137.69;7391329;19;20026;-80
2022/06/03 09:09:56;;;;;;;1.70;0.60;;;;;;;22.20;100.00;100142.97;7392720;19;20599;-79
2022/06/03 09:12:28;;;;;;;2.92;1.10;;;;;;;22.29;100.00;100136.84;7395830;19;20033;-80
2022/06/03 09:14:59;;;;;;;2.63;0.90;;;;;;;22.31;100.00;100134.22;7416061;19;20038;-80
2022/06/03 09:17:33;;;;;;;4.00;0.65;;;;;;;22.30;100.00;100135.53;7413008;19;20070;-81
2022/06/03 09:20:05;;;;;;;3.63;1.20;;;;;;;22.40;100.00;100135.81;7398640;19;20078;-80
2022/06/03 09:22:32;;;;;;;1.27;0.52;;;;;;;22.58;100.00;100129.97;7394913;19;20022;-79
2022/06/03 09:25:00;;;;;;;3.60;0.80;;;;;;;22.67;100.00;100133.69;7389237;19;20369;-78
2022/06/03 09:27:28;;;;;;;3.00;0.45;;;;;;;22.71;100.00;100142.63;7392398;19;20051;-78
2022/06/03 09:29:59;;;;;;;1.77;0.38;;;;;;;22.74;100.00;100135.84;7390597;19;20018;-78
2022/06/03 09:32:27;;;;;;;0.52;0.28;;;;;;;22.99;100.00;100139.84;7391922;19;20026;-77
2022/06/03 09:35:01;;;;;;;1.33;0.80;;;;;;;23.13;100.00;100144.16;7392937;19;20038;-81
2022/06/03 09:37:31;;;;;;;4.03;0.65;;;;;;;23.04;100.00;100145.38;7390079;19;20006;-79
2022/06/03 09:40:01;;;;;;;2.05;0.60;;;;;;;23.06;100.00;100139.16;7391049;19;20045;-78
2022/06/03 09:42:29;;;;;;;4.32;0.77;;;;;;;23.06;100.00;100139.16;7392115;19;20024;-78
2022/06/03 09:44:59;;;;;;;1.83;0.60;;;;;;;23.08;98.51;100136.53;7386355;19;20022;-78
2022/06/03 09:47:27;;;;;;;2.10;0.57;;;;;;;23.21;98.04;100127.91;7387692;19;20038;-79
2022/06/03 09:49:53;;;;;;;3.38;0.82;;;;;;;23.07;98.33;100134.97;7390558;19;20031;-79
2022/06/03 09:52:22;;;;;;;2.05;0.75;;;;;;;23.23;96.03;100137.41;7388666;19;20026;-79
2022/06/03 09:54:50;;;;;;;3.60;0.60;;;;;;;23.33;93.53;100140.53;7391024;19;20043;-78
2022/06/03 09:57:24;;;;;;;0.50;0.30;;;;;;;23.43;90.57;100144.41;7388179;19;20070;-79
2022/06/03 10:00:03;;;;;;;1.30;0.38;;;;;;;23.51;89.35;100145.22;7387828;19;20529;-80
2022/06/03 10:02:39;;;;;;;0.73;0.57;;;;;;;23.33;88.97;100140.53;7390023;19;20685;-78
2022/06/03 10:05:06;;;;;;;1.10;0.28;;;;;;;23.39;88.94;100143.22;7391107;19;20082;-78
2022/06/03 10:07:33;;;;;;;0.60;0.10;;;;;;;23.50;87.84;100155.03;7389631;19;20019;-80
2022/06/03 10:12:49;;;;;;;1.30;0.30;;;;;;;23.67;86.90;100140.38;7392554;19;20018;-78
2022/06/03 10:15:38;;;;;;;1.10;0.50;;;;;;;23.65;87.79;100138.09;7389186;19;20023;-78
2022/06/03 10:18:09;;;;;;;1.75;0.55;;;;;;;23.78;88.69;100140.81;7390495;19;20346;-78
2022/06/03 10:20:36;;;;;;;2.13;0.50;;;;;;;24.06;87.34;100137.94;7390190;19;20035;-79
2022/06/03 10:23:04;;;;;;;1.95;0.45;;;;;;;24.02;85.20;100143.22;7389125;19;20018;-79
2022/06/03 10:25:31;;;;;;;1.10;0.20;;;;;;;24.06;85.89;100143.63;7388151;19;20018;-79
2022/06/03 10:28:08;;;;;;;0.93;0.30;;;;;;;23.99;88.10;100135.81;7391525;19;20022;-80
2022/06/03 10:30:40;;;;;;;1.17;0.20;;;;;;;23.97;81.55;100134.84;7387850;19;20015;-79
2022/06/03 10:33:18;;;;;;;0.95;0.25;;;;;;;23.89;83.08;100134.81;7390382;19;20026;-79
2022/06/03 10:35:46;;;;;;;2.55;0.52;;;;;;;24.04;82.94;100134.91;7389281;19;20029;-80
2022/06/03 10:38:16;;;;;;;1.52;0.40;;;;;;;24.18;83.22;100138.38;7389479;19;20342;-80
2022/06/03 10:40:47;;;;;;;1.65;0.20;;;;;;;24.34;84.03;100134.28;7389497;19;20475;-79
2022/06/03 10:43:24;;;;;;;0.73;0.20;;;;;;;24.50;86.28;100135.03;7391510;19;20022;-79
2022/06/03 10:45:50;;;;;;;0.63;0.20;;;;;;;24.55;85.91;100137.72;7388615;19;20026;-79
2022/06/03 10:48:20;;;;;;;0.50;0.38;;;;;;;24.28;85.06;100136.50;7388756;19;20018;-80
2022/06/03 10:50:46;;;;;;;1.45;0.32;;;;;;;24.36;84.84;100136.53;7388880;19;20355;-79
2022/06/03 11:02:00;;;;;;;0.50;0.40;;;;;;;24.66;90.33;100134.53;7388463;19;20049;-79
2022/06/03 11:04:33;;;;;;;0.28;0.28;;;;;;;24.70;89.01;100134.16;7390564;19;20035;-79
2022/06/03 11:07:02;;;;;;;3.78;0.52;;;;;;;24.67;88.83;100132.41;7387855;19;20334;-78
2022/06/03 11:09:29;;;;;;;3.85;0.52;;;;;;;24.67;88.54;100149.50;7386720;19;20010;-79
2022/06/03 11:12:03;;;;;;;1.60;0.38;;;;;;;24.79;87.00;100140.09;7388358;19;20090;-79
2022/06/03 11:14:38;;;;;;;0.93;0.10;;;;;;;24.90;87.92;100144.66;7389980;19;20015;-79
2022/06/03 11:17:24;;;;;;;2.95;0.60;;;;;;;24.81;87.55;100142.38;7388158;19;20046;-79
2022/06/03 11:19:56;;;;;;;1.30;0.40;;;;;;;24.65;85.86;100147.25;7388651;19;20543;-81
2022/06/03 11:22:27;;;;;;;1.13;0.40;;;;;;;24.77;86.22;100141.97;7385614;19;20048;-81
2022/06/03 11:25:14;;;;;;;0.30;0.17;;;;;;;24.77;88.46;100139.13;7391569;19;20668;-81
2022/06/03 11:27:47;;;;;;;3.28;0.63;;;;;;;24.75;88.10;100145.38;7385851;19;20365;-82
2022/06/03 11:30:32;;;;;;;0.68;0.50;;;;;;;24.53;83.13;100151.00;7386918;19;20109;-80
2022/06/03 11:33:13;;;;;;;4.28;0.47;;;;;;;24.72;85.02;100155.03;7388273;19;20019;-83
2022/06/03 11:35:55;;;;;;;0.60;0.32;;;;;;;24.81;83.21;100153.75;7387456;19;20018;-83
2022/06/03 11:38:56;;;;;;;7.68;0.40;;;;;;;24.77;82.54;100164.78;7389196;19;20488;-82
2022/06/03 11:41:26;;;;;;;1.00;0.17;;;;;;;24.57;80.36;100162.78;7385014;19;20022;-81
2022/06/03 11:44:09;;;;;;;0.65;0.30;;;;;;;24.26;80.82;100161.94;7386670;19;20139;-80
2022/06/03 11:47:00;;;;;;;1.50;0.40;;;;;;;24.53;84.06;100156.72;7386066;19;20037;-79
2022/06/03 11:49:26;;;;;;;1.92;0.30;;;;;;;24.64;87.31;100162.81;7386937;19;20040;-80
2022/06/03 11:51:53;;;;;;;2.42;0.30;;;;;;;24.94;87.68;100156.44;7386331;19;20444;-81
2022/06/03 11:54:23;;;;;;;3.13;0.93;;;;;;;24.74;83.28;100172.34;7386289;19;20430;-81
2022/06/03 11:56:50;;;;;;;2.10;0.50;;;;;;;24.57;85.00;100162.78;7384989;19;20074;-81
2022/06/03 11:59:34;;;;;;;1.90;0.35;;;;;;;24.48;84.01;100169.03;7387473;19;20014;-79
2022/06/03 12:02:43;;;;;;;1.33;0.45;;;;;;;24.38;87.95;100173.75;7391491;19;20028;-79
2022/06/03 12:05:29;;;;;;;0.50;0.20;;;;;;;24.53;88.69;100166.03;7383240;19;20022;-79
2022/06/03 12:08:08;;;;;;;0.57;0.35;;;;;;;24.22;89.93;100160.78;7402179;19;20015;-79
2022/06/03 12:10:50;;;;;;;3.22;0.22;;;;;;;24.01;88.94;100170.16;7389827;19;20006;-81
2022/06/03 12:13:28;;;;;;;1.10;0.30;;;;;;;23.90;91.32;100170.47;7391042;19;20023;-82
2022/06/03 12:15:54;;;;;;;1.45;0.30;;;;;;;23.84;91.31;100172.72;7385467;19;20018;-80
2022/06/03 12:18:34;;;;;;;0.47;0.32;;;;;;;24.14;89.29;100172.13;7386534;19;20010;-81
2022/06/03 12:21:14;;;;;;;1.90;0.40;;;;;;;24.62;88.39;100164.72;7385486;19;20015;-81
2022/06/03 12:23:43;;;;;;;2.72;0.40;;;;;;;25.08;88.39;100171.28;7392460;19;20022;-80
2022/06/03 12:26:28;;;;;;;2.55;0.40;;;;;;;25.14;84.09;100164.06;7394225;19;20026;-81
2022/06/03 12:29:00;;;;;;;0.82;0.28;;;;;;;25.14;85.34;100164.06;7397287;19;20025;-83
2022/06/03 12:31:35;;;;;;;3.08;0.28;;;;;;;25.09;83.97;100164.22;7400237;19;20614;-83
2022/06/03 12:34:27;;;;;;;2.33;0.25;;;;;;;25.12;83.53;100163.84;7401592;19;20022;-91
2022/06/03 12:37:20;;;;;;;0.68;0.10;;;;;;;24.84;82.67;100175.41;7401830;19;20019;-90
2022/06/03 12:39:57;;;;;;;2.92;0.30;;;;;;;25.03;82.57;100150.19;7401442;19;20011;-90
2022/06/03 12:42:26;;;;;;;0.65;0.10;;;;;;;25.19;83.31;100160.22;7397126;19;20029;-85
2022/06/03 12:44:57;;;;;;;1.42;0.22;;;;;;;25.31;82.67;100155.69;7399244;19;20014;-84
2022/06/03 12:47:25;;;;;;;0.75;0.20;;;;;;;25.19;81.04;100154.53;7393698;19;20464;-83
2022/06/03 12:50:04;;;;;;;1.90;0.52;;;;;;;24.79;79.26;100150.72;7398362;19;20022;-91
2022/06/03 12:52:30;;;;;;;1.80;0.60;;;;;;;24.78;79.23;100166.28;7399835;19;20019;-89